sensor_id;sensor_type;location;lat;lon;timestamp;P1;durP1;ratioP1;P2;durP2;ratioP2
7247;SDS011;3665;51.034;13.642;2022-12-10T03:27:20;35.47;;;20.50;;
7247;SDS011;3665;51.034;13.642;2022-12-10T03:38:21;34.70;;;18.67;;
7247;SDS011;3665;51.034;13.642;2022-12-10T03:49:26;32.93;;;18.83;;
7247;SDS011;3665;51.034;13.642;2022-12-10T03:55:57;35.33;;;19.13;;
7247;SDS011;3665;51.034;13.642;2022-12-10T04:00:14;36.83;;;20.47;;
7247;SDS011;3665;51.034;13.642;2022-12-10T04:18:19;38.23;;;20.57;;
7247;SDS011;3665;51.034;13.642;2022-12-10T04:23:54;35.23;;;20.40;;
7247;SDS011;3665;51.034;13.642;2022-12-10T04:29:49;34.03;;;19.67;;
7247;SDS011;3665;51.034;13.642;2022-12-10T04:35:30;34.57;;;19.80;;
7247;SDS011;3665;51.034;13.642;2022-12-10T04:54:19;35.07;;;19.30;;
7247;SDS011;3665;51.034;13.642;2022-12-10T05:00:56;32.57;;;18.80;;
7247;SDS011;3665;51.034;13.642;2022-12-10T05:07:05;37.33;;;20.70;;
7247;SDS011;3665;51.034;13.642;2022-12-10T05:26:05;33.13;;;19.33;;
7247;SDS011;3665;51.034;13.642;2022-12-10T05:43:59;32.90;;;19.23;;
7247;SDS011;3665;51.034;13.642;2022-12-10T09:19:45;32.90;;;18.93;;
7247;SDS011;3665;51.034;13.642;2022-12-10T10:27:28;36.53;;;20.37;;
7247;SDS011;3665;51.034;13.642;2022-12-10T11:06:55;35.47;;;19.73;;
7247;SDS011;3665;51.034;13.642;2022-12-10T11:12:20;26.07;;;17.53;;
7247;SDS011;3665;51.034;13.642;2022-12-10T11:17:29;29.37;;;18.23;;
7247;SDS011;3665;51.034;13.642;2022-12-10T11:22:56;28.37;;;17.37;;
7247;SDS011;3665;51.034;13.642;2022-12-10T11:28:18;28.90;;;17.70;;
7247;SDS011;3665;51.034;13.642;2022-12-10T11:33:31;27.97;;;17.60;;
7247;SDS011;3665;51.034;13.642;2022-12-10T11:38:37;26.63;;;16.53;;
7247;SDS011;3665;51.034;13.642;2022-12-10T11:44:03;28.57;;;18.20;;
7247;SDS011;3665;51.034;13.642;2022-12-10T11:49:30;31.40;;;18.27;;
7247;SDS011;3665;51.034;13.642;2022-12-10T11:54:54;25.83;;;16.63;;
7247;SDS011;3665;51.034;13.642;2022-12-10T12:00:15;25.13;;;17.60;;
7247;SDS011;3665;51.034;13.642;2022-12-10T12:05:52;25.33;;;15.57;;
7247;SDS011;3665;51.034;13.642;2022-12-10T12:18:04;25.57;;;16.00;;
7247;SDS011;3665;51.034;13.642;2022-12-10T12:29:04;25.03;;;15.37;;
7247;SDS011;3665;51.034;13.642;2022-12-10T12:40:28;27.70;;;18.37;;
7247;SDS011;3665;51.034;13.642;2022-12-10T12:51:09;24.10;;;15.37;;
7247;SDS011;3665;51.034;13.642;2022-12-10T12:56:45;25.63;;;15.63;;
7247;SDS011;3665;51.034;13.642;2022-12-10T13:02:52;25.97;;;16.23;;
7247;SDS011;3665;51.034;13.642;2022-12-10T13:08:30;26.77;;;16.07;;
7247;SDS011;3665;51.034;13.642;2022-12-10T13:31:41;23.63;;;15.30;;
7247;SDS011;3665;51.034;13.642;2022-12-10T13:37:05;25.20;;;15.27;;
7247;SDS011;3665;51.034;13.642;2022-12-10T13:42:38;22.00;;;13.90;;
7247;SDS011;3665;51.034;13.642;2022-12-10T13:53:48;25.00;;;14.67;;
7247;SDS011;3665;51.034;13.642;2022-12-10T14:10:51;23.00;;;14.37;;
7247;SDS011;3665;51.034;13.642;2022-12-10T14:16:28;21.57;;;14.63;;
7247;SDS011;3665;51.034;13.642;2022-12-10T14:22:00;20.17;;;13.57;;
7247;SDS011;3665;51.034;13.642;2022-12-10T14:27:40;22.17;;;14.60;;
7247;SDS011;3665;51.034;13.642;2022-12-10T14:32:58;22.60;;;14.87;;
7247;SDS011;3665;51.034;13.642;2022-12-10T14:43:29;21.63;;;13.83;;
7247;SDS011;3665;51.034;13.642;2022-12-10T14:54:24;22.20;;;14.57;;
7247;SDS011;3665;51.034;13.642;2022-12-10T14:59:39;22.17;;;15.17;;
7247;SDS011;3665;51.034;13.642;2022-12-10T15:05:31;23.37;;;16.10;;
7247;SDS011;3665;51.034;13.642;2022-12-10T15:10:58;26.40;;;16.87;;
7247;SDS011;3665;51.034;13.642;2022-12-10T15:15:56;24.50;;;14.90;;
7247;SDS011;3665;51.034;13.642;2022-12-10T15:22:11;23.23;;;16.47;;
7247;SDS011;3665;51.034;13.642;2022-12-10T15:27:38;24.13;;;16.00;;
7247;SDS011;3665;51.034;13.642;2022-12-10T15:32:58;25.07;;;16.83;;
7247;SDS011;3665;51.034;13.642;2022-12-10T15:37:48;27.30;;;16.47;;
7247;SDS011;3665;51.034;13.642;2022-12-10T15:43:23;25.27;;;16.93;;
7247;SDS011;3665;51.034;13.642;2022-12-10T15:48:29;25.67;;;17.80;;
7247;SDS011;3665;51.034;13.642;2022-12-10T15:53:35;27.00;;;17.90;;
7247;SDS011;3665;51.034;13.642;2022-12-10T15:58:49;31.00;;;18.40;;
7247;SDS011;3665;51.034;13.642;2022-12-10T16:04:09;27.43;;;17.17;;
7247;SDS011;3665;51.034;13.642;2022-12-10T16:09:18;28.77;;;17.93;;
7247;SDS011;3665;51.034;13.642;2022-12-10T16:14:49;30.77;;;19.70;;
7247;SDS011;3665;51.034;13.642;2022-12-10T16:19:55;30.60;;;19.17;;
7247;SDS011;3665;51.034;13.642;2022-12-10T16:24:56;30.93;;;19.23;;
7247;SDS011;3665;51.034;13.642;2022-12-10T16:30:05;32.77;;;19.57;;
7247;SDS011;3665;51.034;13.642;2022-12-10T16:35:30;32.60;;;19.63;;
7247;SDS011;3665;51.034;13.642;2022-12-10T16:46:18;33.87;;;19.67;;
7247;SDS011;3665;51.034;13.642;2022-12-10T16:51:08;29.33;;;19.07;;
7247;SDS011;3665;51.034;13.642;2022-12-10T16:56:17;32.30;;;18.97;;
7247;SDS011;3665;51.034;13.642;2022-12-10T17:01:31;31.00;;;18.80;;
7247;SDS011;3665;51.034;13.642;2022-12-10T17:06:33;28.90;;;18.47;;
7247;SDS011;3665;51.034;13.642;2022-12-10T17:11:44;32.97;;;19.87;;
7247;SDS011;3665;51.034;13.642;2022-12-10T17:16:43;28.30;;;18.50;;
7247;SDS011;3665;51.034;13.642;2022-12-10T17:21:29;31.10;;;18.80;;
7247;SDS011;3665;51.034;13.642;2022-12-10T17:26:26;29.37;;;17.77;;
7247;SDS011;3665;51.034;13.642;2022-12-10T17:31:38;31.53;;;18.77;;
7247;SDS011;3665;51.034;13.642;2022-12-10T17:36:31;29.60;;;18.53;;
7247;SDS011;3665;51.034;13.642;2022-12-10T17:41:28;28.40;;;18.40;;
7247;SDS011;3665;51.034;13.642;2022-12-10T17:46:41;28.40;;;17.93;;
7247;SDS011;3665;51.034;13.642;2022-12-10T17:52:30;31.13;;;18.90;;
7247;SDS011;3665;51.034;13.642;2022-12-10T18:03:23;30.33;;;18.07;;
7247;SDS011;3665;51.034;13.642;2022-12-10T18:08:25;29.83;;;17.97;;
7247;SDS011;3665;51.034;13.642;2022-12-10T18:13:28;30.27;;;17.30;;
7247;SDS011;3665;51.034;13.642;2022-12-10T18:18:18;31.77;;;20.17;;
7247;SDS011;3665;51.034;13.642;2022-12-10T18:34:19;32.00;;;20.27;;
7247;SDS011;3665;51.034;13.642;2022-12-10T18:39:27;30.83;;;20.57;;
7247;SDS011;3665;51.034;13.642;2022-12-10T18:44:31;32.87;;;20.63;;
7247;SDS011;3665;51.034;13.642;2022-12-10T18:49:44;35.37;;;21.37;;
7247;SDS011;3665;51.034;13.642;2022-12-10T19:00:10;31.93;;;19.83;;
7247;SDS011;3665;51.034;13.642;2022-12-10T19:05:14;33.63;;;21.13;;
7247;SDS011;3665;51.034;13.642;2022-12-10T19:10:20;35.40;;;22.57;;
7247;SDS011;3665;51.034;13.642;2022-12-10T19:15:20;32.70;;;20.70;;
7247;SDS011;3665;51.034;13.642;2022-12-10T19:20:24;31.27;;;20.43;;
7247;SDS011;3665;51.034;13.642;2022-12-10T19:25:31;30.67;;;19.33;;
7247;SDS011;3665;51.034;13.642;2022-12-10T19:30:33;32.70;;;20.20;;
7247;SDS011;3665;51.034;13.642;2022-12-10T19:35:22;36.83;;;22.27;;
7247;SDS011;3665;51.034;13.642;2022-12-10T19:40:14;33.83;;;20.60;;
7247;SDS011;3665;51.034;13.642;2022-12-10T19:45:14;32.97;;;20.63;;
7247;SDS011;3665;51.034;13.642;2022-12-10T19:55:54;31.67;;;19.93;;
7247;SDS011;3665;51.034;13.642;2022-12-10T20:01:15;32.67;;;19.20;;
7247;SDS011;3665;51.034;13.642;2022-12-10T20:06:01;32.60;;;21.20;;
7247;SDS011;3665;51.034;13.642;2022-12-10T20:11:05;34.80;;;20.47;;
7247;SDS011;3665;51.034;13.642;2022-12-10T20:15:52;32.00;;;19.10;;
7247;SDS011;3665;51.034;13.642;2022-12-10T20:20:41;31.57;;;19.77;;
7247;SDS011;3665;51.034;13.642;2022-12-10T20:25:30;32.53;;;20.30;;
7247;SDS011;3665;51.034;13.642;2022-12-10T20:30:37;30.67;;;19.00;;
7247;SDS011;3665;51.034;13.642;2022-12-10T20:35:22;32.47;;;18.70;;
7247;SDS011;3665;51.034;13.642;2022-12-10T20:40:11;29.37;;;18.70;;
7247;SDS011;3665;51.034;13.642;2022-12-10T20:45:28;28.70;;;18.83;;
7247;SDS011;3665;51.034;13.642;2022-12-10T20:50:19;26.50;;;17.30;;
7247;SDS011;3665;51.034;13.642;2022-12-10T21:01:12;29.40;;;18.23;;
7247;SDS011;3665;51.034;13.642;2022-12-10T21:06:02;30.80;;;19.07;;
7247;SDS011;3665;51.034;13.642;2022-12-10T21:10:50;28.07;;;18.63;;
7247;SDS011;3665;51.034;13.642;2022-12-10T21:16:11;32.60;;;18.83;;
7247;SDS011;3665;51.034;13.642;2022-12-10T21:21:28;28.20;;;19.00;;
7247;SDS011;3665;51.034;13.642;2022-12-10T21:26:37;29.27;;;18.27;;
7247;SDS011;3665;51.034;13.642;2022-12-10T21:31:52;26.43;;;17.87;;
7247;SDS011;3665;51.034;13.642;2022-12-10T21:36:41;25.77;;;17.70;;
7247;SDS011;3665;51.034;13.642;2022-12-10T21:41:28;30.63;;;18.80;;
7247;SDS011;3665;51.034;13.642;2022-12-10T21:46:35;27.00;;;17.33;;
7247;SDS011;3665;51.034;13.642;2022-12-10T21:51:36;25.50;;;16.17;;
7247;SDS011;3665;51.034;13.642;2022-12-10T21:56:40;27.70;;;17.63;;
7247;SDS011;3665;51.034;13.642;2022-12-10T22:06:54;27.83;;;17.23;;
7247;SDS011;3665;51.034;13.642;2022-12-10T22:11:53;26.43;;;15.77;;
7247;SDS011;3665;51.034;13.642;2022-12-10T22:16:41;25.13;;;16.30;;
7247;SDS011;3665;51.034;13.642;2022-12-10T22:21:44;27.60;;;16.83;;
7247;SDS011;3665;51.034;13.642;2022-12-10T22:26:36;24.97;;;16.40;;
7247;SDS011;3665;51.034;13.642;2022-12-10T22:31:38;27.60;;;15.97;;
7247;SDS011;3665;51.034;13.642;2022-12-10T22:36:25;29.00;;;17.27;;
7247;SDS011;3665;51.034;13.642;2022-12-10T22:41:16;28.20;;;16.93;;
7247;SDS011;3665;51.034;13.642;2022-12-10T22:46:04;27.53;;;17.33;;
7247;SDS011;3665;51.034;13.642;2022-12-10T22:50:57;25.83;;;15.80;;
7247;SDS011;3665;51.034;13.642;2022-12-10T22:56:02;26.50;;;16.33;;
7247;SDS011;3665;51.034;13.642;2022-12-10T23:01:14;28.23;;;17.20;;
7247;SDS011;3665;51.034;13.642;2022-12-10T23:06:26;28.90;;;18.17;;
7247;SDS011;3665;51.034;13.642;2022-12-10T23:11:29;23.33;;;15.57;;
7247;SDS011;3665;51.034;13.642;2022-12-10T23:17:13;25.60;;;15.47;;
7247;SDS011;3665;51.034;13.642;2022-12-10T23:27:38;28.50;;;17.47;;
7247;SDS011;3665;51.034;13.642;2022-12-10T23:38:04;24.90;;;15.57;;
7247;SDS011;3665;51.034;13.642;2022-12-10T23:43:04;25.10;;;16.37;;
7247;SDS011;3665;51.034;13.642;2022-12-10T23:53:44;26.93;;;17.53;;
7247;SDS011;3665;51.034;13.642;2022-12-10T23:58:41;25.53;;;15.77;;
